Time;durP1;ratioP1;P1;durP2;ratioP2;P2;SDS_P1;SDS_P2;PMS_P1;PMS_P2;Temp;Humidity;BMP_temperature;BMP_pressure;BME280_temperature;BME280_humidity;BME280_pressure;Samples;Min_cycle;Max_cycle;Signal;HPM_P1;HPM_P2
2022/11/05 00:17:05;;;;;;;7.50;6.10;;;10.90;72.20;;;;;;5034693;28;20059;-49
2022/11/05 00:19:36;;;;;;;12.55;6.35;;;10.90;72.20;;;;;;5048112;28;20099;-47
2022/11/05 00:27:41;;;;;;;7.22;5.38;;;10.80;72.20;;;;;;5047819;28;20460;-49
2022/11/05 00:30:08;;;;;;;7.78;5.68;;;10.80;72.20;;;;;;5041288;28;20046;-47
2022/11/05 00:32:35;;;;;;;9.05;5.63;;;10.80;72.20;;;;;;5031120;28;20033;-47
2022/11/05 00:35:08;;;;;;;6.18;5.20;;;10.80;72.20;;;;;;5041927;28;20041;-47
2022/11/05 00:37:47;;;;;;;7.40;5.65;;;10.80;72.00;;;;;;5049997;28;20191;-47
2022/11/05 00:40:19;;;;;;;8.10;6.13;;;10.80;71.80;;;;;;5034467;28;20116;-46
2022/11/05 00:45:39;;;;;;;7.72;6.30;;;10.80;71.80;;;;;;5050249;28;20063;-47
2022/11/05 00:50:51;;;;;;;8.07;6.25;;;10.70;71.50;;;;;;5027674;28;20045;-48
2022/11/05 00:53:18;;;;;;;7.18;6.35;;;10.70;71.40;;;;;;5035882;28;20051;-47
2022/11/05 00:55:50;;;;;;;6.70;5.82;;;10.70;71.60;;;;;;5031329;28;20052;-48
2022/11/05 00:58:19;;;;;;;6.78;5.95;;;10.70;71.60;;;;;;5026000;28;20057;-48
2022/11/05 01:00:56;;;;;;;7.80;5.70;;;10.60;71.60;;;;;;5044963;28;20081;-48
2022/11/05 01:03:31;;;;;;;7.05;6.30;;;10.60;71.40;;;;;;5044770;28;20128;-49
2022/11/05 01:06:11;;;;;;;8.57;5.85;;;10.60;71.40;;;;;;5050411;28;20457;-48
2022/11/05 01:08:43;;;;;;;6.63;5.65;;;10.60;71.10;;;;;;5032053;28;20049;-48
2022/11/05 01:11:33;;;;;;;6.50;5.90;;;10.60;71.10;;;;;;5042533;28;20110;-50
2022/11/05 01:14:10;;;;;;;7.10;4.80;;;10.60;70.90;;;;;;5038770;28;20477;-47
2022/11/05 01:16:39;;;;;;;7.80;5.43;;;10.60;70.60;;;;;;5044706;28;20536;-47
2022/11/05 01:19:09;;;;;;;6.15;5.40;;;10.60;70.60;;;;;;5033233;28;20041;-47
2022/11/05 01:21:37;;;;;;;6.15;5.47;;;10.50;70.40;;;;;;5040509;28;20103;-46
2022/11/05 01:24:09;;;;;;;6.65;5.93;;;10.50;70.40;;;;;;5045661;28;20044;-48
2022/11/05 01:26:41;;;;;;;7.20;6.10;;;10.50;70.40;;;;;;5052736;28;20563;-47
2022/11/05 01:29:10;;;;;;;8.55;7.10;;;10.40;70.60;;;;;;5033437;28;20050;-47
2022/11/05 01:31:36;;;;;;;8.55;6.63;;;10.40;71.00;;;;;;5041785;28;20061;-48
2022/11/05 01:34:05;;;;;;;10.93;6.60;;;10.40;71.00;;;;;;5051422;28;20095;-49
2022/11/05 01:36:35;;;;;;;7.60;6.40;;;10.40;71.00;;;;;;5051448;28;20049;-48
2022/11/05 01:39:01;;;;;;;7.78;6.53;;;10.30;70.90;;;;;;5037811;28;20041;-48
2022/11/05 01:41:28;;;;;;;8.60;7.03;;;10.30;70.60;;;;;;5041291;28;20051;-47
2022/11/05 01:43:58;;;;;;;9.02;6.82;;;10.20;70.50;;;;;;5052562;28;20072;-48
2022/11/05 01:46:39;;;;;;;15.67;7.67;;;10.30;70.70;;;;;;5038138;28;20449;-47
2022/11/05 01:49:20;;;;;;;13.65;8.43;;;10.20;71.00;;;;;;5045881;28;20123;-48
2022/11/05 01:51:54;;;;;;;12.15;7.85;;;10.20;71.00;;;;;;5034531;28;20490;-47
2022/11/05 01:54:26;;;;;;;10.77;7.55;;;10.20;71.20;;;;;;5028233;28;20598;-47
2022/11/05 01:56:58;;;;;;;10.77;7.70;;;10.10;71.50;;;;;;5046995;28;20041;-49
2022/11/05 01:59:30;;;;;;;10.38;7.40;;;10.10;72.50;;;;;;5048187;28;20053;-48
2022/11/05 02:01:57;;;;;;;9.15;7.82;;;10.10;72.10;;;;;;5043461;28;20034;-47
2022/11/05 02:04:40;;;;;;;8.10;7.30;;;10.10;72.20;;;;;;5036032;28;20052;-47
2022/11/05 02:07:09;;;;;;;8.45;6.75;;;10.10;72.60;;;;;;5038661;28;20507;-48
2022/11/05 02:09:48;;;;;;;8.27;7.28;;;10.10;72.50;;;;;;5044000;28;20519;-48
2022/11/05 02:12:15;;;;;;;8.65;7.00;;;10.10;72.60;;;;;;5049548;28;20115;-47
2022/11/05 02:14:44;;;;;;;8.40;7.03;;;10.10;72.70;;;;;;5034637;28;20037;-50
2022/11/05 02:17:33;;;;;;;7.28;6.30;;;10.10;72.80;;;;;;5043826;28;20044;-48
2022/11/05 02:20:27;;;;;;;7.95;6.75;;;10.20;72.90;;;;;;5023496;28;20102;-47
2022/11/05 02:23:24;;;;;;;7.25;6.15;;;10.20;73.40;;;;;;5038731;28;20176;-47
2022/11/05 02:26:03;;;;;;;7.95;6.95;;;10.20;73.40;;;;;;5040051;28;20120;-48
2022/11/05 02:28:50;;;;;;;7.60;6.70;;;10.20;73.10;;;;;;5044027;28;20040;-49
2022/11/05 02:31:48;;;;;;;8.65;7.10;;;10.20;73.50;;;;;;5052306;28;20068;-47
2022/11/05 02:34:36;;;;;;;10.52;7.00;;;10.30;74.00;;;;;;5033289;28;20067;-47
2022/11/05 02:37:25;;;;;;;7.80;7.07;;;10.20;73.30;;;;;;5040362;28;20044;-46
2022/11/05 02:40:16;;;;;;;9.82;7.57;;;10.30;73.80;;;;;;5031892;28;20045;-46
2022/11/05 02:43:07;;;;;;;9.15;6.95;;;10.30;73.50;;;;;;5030577;28;20497;-47
2022/11/05 02:45:50;;;;;;;8.48;7.18;;;10.30;73.20;;;;;;5041653;28;20063;-48
2022/11/05 02:48:29;;;;;;;6.97;6.07;;;10.30;73.30;;;;;;5032091;28;20037;-47
2022/11/05 02:51:25;;;;;;;6.57;5.88;;;10.30;73.10;;;;;;5051152;28;20501;-48
2022/11/05 02:54:04;;;;;;;5.97;5.05;;;10.30;73.10;;;;;;5041838;28;20045;-47
2022/11/05 02:56:40;;;;;;;7.22;5.53;;;10.30;72.50;;;;;;5028441;28;20048;-48
2022/11/05 02:59:07;;;;;;;7.50;6.75;;;10.30;72.20;;;;;;5030020;28;20072;-47
2022/11/05 03:01:38;;;;;;;7.60;5.65;;;10.20;72.30;;;;;;5029450;28;20486;-49
2022/11/05 03:04:08;;;;;;;7.38;5.78;;;10.20;72.40;;;;;;5039005;28;20124;-47
2022/11/05 03:06:42;;;;;;;6.18;5.57;;;10.20;72.50;;;;;;5047197;28;20045;-47
2022/11/05 03:09:36;;;;;;;6.97;6.35;;;10.20;72.60;;;;;;5045631;28;20042;-49
2022/11/05 03:12:27;;;;;;;9.88;6.45;;;10.20;73.20;;;;;;5036689;28;20037;-47
2022/11/05 03:14:57;;;;;;;7.63;6.20;;;10.10;72.80;;;;;;5043021;28;20049;-47
2022/11/05 03:17:42;;;;;;;11.15;6.88;;;10.10;72.80;;;;;;5031892;28;20046;-46
2022/11/05 03:20:14;;;;;;;8.55;6.55;;;10.10;73.30;;;;;;5034180;28;20057;-47
2022/11/05 03:22:52;;;;;;;7.78;6.82;;;10.10;73.00;;;;;;5036699;28;20049;-48
2022/11/05 03:25:23;;;;;;;8.23;7.20;;;10.10;73.20;;;;;;5037091;28;20481;-47
2022/11/05 03:27:57;;;;;;;8.52;7.53;;;10.10;73.20;;;;;;5031251;28;20053;-47
2022/11/05 03:30:27;;;;;;;9.80;7.70;;;10.10;73.30;;;;;;5028385;28;20030;-47
2022/11/05 03:33:02;;;;;;;9.68;7.90;;;10.00;73.10;;;;;;5040711;28;20403;-47
2022/11/05 03:35:44;;;;;;;11.73;8.80;;;10.10;73.30;;;;;;5047584;28;20044;-49
2022/11/05 03:38:18;;;;;;;12.05;8.00;;;10.00;73.40;;;;;;5035674;28;20403;-51
2022/11/05 03:40:50;;;;;;;9.52;8.52;;;10.00;73.40;;;;;;5037415;28;20041;-49
2022/11/05 03:43:23;;;;;;;11.55;9.05;;;10.00;73.40;;;;;;5042452;28;20091;-47
2022/11/05 03:46:01;;;;;;;12.52;9.07;;;10.00;73.50;;;;;;5050311;28;20446;-48
2022/11/05 03:48:30;;;;;;;13.02;9.73;;;10.00;73.70;;;;;;5034479;28;20117;-48
2022/11/05 03:51:33;;;;;;;11.25;8.57;;;10.00;73.70;;;;;;5042156;28;20064;-50
2022/11/05 03:54:02;;;;;;;12.80;10.25;;;10.00;73.90;;;;;;5039141;28;20057;-48
2022/11/05 03:56:43;;;;;;;11.23;10.02;;;9.90;73.70;;;;;;5022882;28;20096;-47
2022/11/05 03:59:15;;;;;;;11.88;9.95;;;9.90;73.90;;;;;;5028767;28;20115;-48
2022/11/05 04:01:44;;;;;;;13.17;10.33;;;9.90;73.80;;;;;;5031433;28;20104;-47
2022/11/05 04:04:12;;;;;;;14.07;9.95;;;9.90;73.80;;;;;;5043468;28;20382;-49
2022/11/05 04:14:55;;;;;;;12.73;10.02;;;9.80;73.90;;;;;;5049629;28;20048;-47
2022/11/05 04:17:22;;;;;;;14.43;9.95;;;9.80;73.90;;;;;;5037327;28;20049;-47
2022/11/05 04:25:24;;;;;;;15.15;11.60;;;9.80;74.10;;;;;;5026211;28;20036;-47
2022/11/05 04:27:58;;;;;;;18.58;11.45;;;9.80;74.10;;;;;;5033040;28;20575;-47
2022/11/05 04:30:25;;;;;;;16.05;11.30;;;9.80;74.20;;;;;;5041934;28;20044;-47
2022/11/05 04:33:07;;;;;;;14.85;11.82;;;9.70;74.20;;;;;;5049739;28;20072;-47
2022/11/05 04:35:40;;;;;;;14.80;11.85;;;9.80;74.40;;;;;;5033460;28;20088;-47
2022/11/05 04:38:10;;;;;;;13.38;11.60;;;9.80;74.30;;;;;;5042873;28;20039;-47
2022/11/05 04:40:37;;;;;;;16.52;11.77;;;9.70;74.20;;;;;;5047461;28;20405;-47
2022/11/05 04:43:12;;;;;;;16.48;12.43;;;9.70;74.20;;;;;;5042045;28;20434;-47
2022/11/05 04:45:43;;;;;;;17.63;11.93;;;9.70;74.30;;;;;;5045993;28;20140;-47
2022/11/05 04:48:12;;;;;;;17.05;12.73;;;9.70;74.20;;;;;;5046324;28;20087;-47
2022/11/05 04:50:42;;;;;;;16.15;11.80;;;9.70;74.20;;;;;;5048035;28;20049;-47
2022/11/05 04:53:08;;;;;;;15.57;11.25;;;9.70;74.30;;;;;;5031680;28;20029;-47
2022/11/05 04:55:37;;;;;;;16.38;12.93;;;9.70;74.30;;;;;;5036543;28;20087;-48
2022/11/05 04:58:08;;;;;;;16.45;12.00;;;9.80;74.40;;;;;;5042138;28;20039;-47
2022/11/05 05:00:36;;;;;;;15.27;11.63;;;9.70;74.40;;;;;;5045474;28;20094;-49
2022/11/05 05:03:04;;;;;;;16.40;12.40;;;9.70;74.40;;;;;;5049546;28;20045;-47
2022/11/05 05:05:38;;;;;;;16.67;12.10;;;9.70;74.40;;;;;;5035739;28;20043;-48
2022/11/05 05:08:08;;;;;;;20.20;11.82;;;9.70;74.60;;;;;;5034093;28;20125;-47
2022/11/05 05:10:37;;;;;;;14.88;11.43;;;9.70;74.50;;;;;;5033823;28;20446;-48
2022/11/05 05:13:03;;;;;;;14.93;11.50;;;9.70;74.40;;;;;;5024870;28;20040;-47
2022/11/05 05:15:32;;;;;;;15.13;11.77;;;9.60;74.40;;;;;;5042507;28;20041;-47
2022/11/05 05:17:59;;;;;;;18.50;12.30;;;9.60;74.40;;;;;;5032033;28;20034;-48
2022/11/05 05:23:14;;;;;;;14.35;10.75;;;9.60;74.30;;;;;;5035836;28;20738;-47
2022/11/05 05:25:41;;;;;;;15.93;11.63;;;9.60;74.30;;;;;;5042992;28;20048;-47
2022/11/05 05:28:10;;;;;;;14.40;11.63;;;9.60;74.40;;;;;;5051789;28;20486;-49
2022/11/05 05:30:37;;;;;;;16.98;11.80;;;9.60;74.40;;;;;;5033939;28;20064;-50
2022/11/05 05:33:04;;;;;;;12.98;11.27;;;9.60;74.30;;;;;;5043325;28;20053;-47
2022/11/05 05:35:31;;;;;;;14.43;10.82;;;9.60;74.30;;;;;;5041147;28;20045;-47
2022/11/05 05:38:01;;;;;;;19.90;10.80;;;9.50;74.30;;;;;;5051095;28;20045;-47
2022/11/05 05:40:33;;;;;;;14.55;10.55;;;9.60;74.30;;;;;;5038194;28;20057;-48
2022/11/05 05:43:00;;;;;;;14.75;10.77;;;9.50;74.20;;;;;;5020203;28;20051;-52
2022/11/05 05:45:26;;;;;;;13.98;10.35;;;9.50;74.20;;;;;;5026674;28;20041;-47
2022/11/05 05:47:54;;;;;;;12.43;10.68;;;9.50;74.30;;;;;;5040899;28;20047;-47
2022/11/05 05:50:21;;;;;;;14.32;10.55;;;9.50;74.40;;;;;;5037183;28;20033;-47
2022/11/05 05:52:51;;;;;;;12.13;10.30;;;9.40;74.30;;;;;;5041412;28;20429;-49
2022/11/05 05:55:17;;;;;;;12.93;10.52;;;9.50;74.40;;;;;;5028634;28;20558;-49
2022/11/05 05:57:44;;;;;;;14.70;10.75;;;9.40;74.40;;;;;;5025062;28;20057;-48
2022/11/05 06:00:11;;;;;;;14.90;10.55;;;9.40;74.40;;;;;;5044326;28;20049;-48
2022/11/05 06:02:38;;;;;;;12.35;10.57;;;9.40;74.40;;;;;;5048041;28;20454;-47
2022/11/05 06:05:05;;;;;;;12.32;9.23;;;9.40;74.40;;;;;;5040266;28;20061;-47
2022/11/05 06:07:32;;;;;;;12.60;9.95;;;9.40;74.40;;;;;;5030187;28;20037;-47
2022/11/05 06:10:03;;;;;;;11.18;9.93;;;9.40;74.50;;;;;;5024367;28;20041;-48
2022/11/05 06:12:30;;;;;;;12.15;9.85;;;9.40;74.50;;;;;;5038614;28;20465;-47
2022/11/05 06:14:57;;;;;;;13.60;8.98;;;9.40;74.40;;;;;;5038881;28;20041;-47
2022/11/05 06:17:24;;;;;;;13.18;8.77;;;9.40;74.40;;;;;;5030292;28;20045;-48
2022/11/05 06:19:50;;;;;;;12.65;9.35;;;9.30;74.40;;;;;;5031214;28;20513;-47
2022/11/05 06:22:17;;;;;;;19.05;11.13;;;9.40;74.50;;;;;;5037797;28;20045;-48
2022/11/05 06:24:43;;;;;;;13.80;9.05;;;9.30;74.50;;;;;;5030399;28;20416;-48
2022/11/05 06:27:10;;;;;;;11.77;9.27;;;9.30;75.10;;;;;;5021480;28;20049;-47
2022/11/05 06:29:37;;;;;;;12.00;9.35;;;9.30;74.50;;;;;;5032410;28;20498;-47
2022/11/05 06:32:03;;;;;;;11.30;9.18;;;9.30;74.50;;;;;;5036165;28;20045;-51
2022/11/05 06:34:37;;;;;;;13.05;9.57;;;9.30;74.60;;;;;;5031424;28;20120;-47
2022/11/05 06:37:04;;;;;;;12.20;8.93;;;9.30;74.80;;;;;;5037912;28;20050;-46
2022/11/05 06:39:34;;;;;;;12.77;8.85;;;9.20;74.60;;;;;;5028007;28;20160;-47
2022/11/05 06:42:01;;;;;;;9.73;7.90;;;9.30;74.80;;;;;;5034441;28;20211;-46
2022/11/05 06:44:45;;;;;;;9.95;7.97;;;9.20;74.70;;;;;;5059646;22;20478;-50
2022/11/05 06:47:11;;;;;;;14.02;9.02;;;9.30;74.80;;;;;;5030180;28;20029;-50
2022/11/05 06:49:42;;;;;;;11.18;7.90;;;9.20;74.70;;;;;;5041731;28;20057;-49
2022/11/05 06:52:08;;;;;;;9.95;7.72;;;9.30;74.90;;;;;;5051337;28;20048;-51
2022/11/05 06:54:35;;;;;;;16.75;7.68;;;9.30;74.90;;;;;;5049402;28;20045;-50
2022/11/05 06:57:08;;;;;;;10.38;6.90;;;9.30;75.00;;;;;;5039020;28;20047;-48
2022/11/05 06:59:39;;;;;;;10.07;7.55;;;9.20;74.90;;;;;;5042360;28;20045;-51
2022/11/05 07:02:10;;;;;;;8.15;7.18;;;9.30;75.00;;;;;;5051040;28;20509;-53
2022/11/05 07:04:39;;;;;;;10.75;7.68;;;9.30;75.10;;;;;;5051232;28;20501;-52
2022/11/05 07:07:05;;;;;;;10.35;7.15;;;9.30;75.00;;;;;;5044440;28;20037;-49
2022/11/05 07:09:32;;;;;;;10.07;7.10;;;9.30;75.00;;;;;;5029950;28;20124;-52
2022/11/05 07:12:01;;;;;;;10.35;7.50;;;9.30;75.10;;;;;;5030805;28;20476;-52
2022/11/05 07:14:30;;;;;;;10.55;7.25;;;9.30;75.10;;;;;;5028232;28;20075;-53
2022/11/05 07:16:59;;;;;;;8.90;6.30;;;9.30;75.00;;;;;;5036617;28;20057;-51
2022/11/05 07:19:27;;;;;;;9.60;6.70;;;9.30;75.00;;;;;;5051035;28;20041;-52
2022/11/05 07:21:56;;;;;;;8.82;6.18;;;9.30;75.10;;;;;;5048384;28;20579;-52
2022/11/05 07:24:23;;;;;;;10.50;6.55;;;9.30;75.10;;;;;;5029917;28;20112;-52
2022/11/05 07:26:49;;;;;;;8.55;6.70;;;9.30;75.20;;;;;;5041793;28;20517;-53
2022/11/05 07:29:16;;;;;;;7.60;6.78;;;9.40;75.20;;;;;;5045011;28;20045;-53
2022/11/05 07:31:43;;;;;;;8.27;6.45;;;9.30;75.10;;;;;;5037470;28;20057;-51
2022/11/05 07:34:09;;;;;;;11.02;7.00;;;9.40;75.20;;;;;;5036750;28;20033;-53
2022/11/05 07:36:38;;;;;;;9.30;6.78;;;9.40;75.20;;;;;;5039940;28;20068;-50
2022/11/05 07:39:10;;;;;;;11.38;7.03;;;9.40;75.30;;;;;;5051436;28;20099;-53
2022/11/05 07:41:47;;;;;;;9.48;6.85;;;9.40;75.30;;;;;;5032485;28;20099;-53
2022/11/05 07:44:13;;;;;;;8.23;6.53;;;9.50;75.30;;;;;;5027359;28;20065;-53
2022/11/05 07:46:41;;;;;;;10.70;7.07;;;9.50;75.20;;;;;;5038503;28;20049;-53
2022/11/05 07:49:08;;;;;;;10.48;6.57;;;9.50;75.30;;;;;;5050113;28;20533;-53
2022/11/05 07:51:36;;;;;;;11.77;7.10;;;9.50;75.30;;;;;;5036103;28;20033;-53
2022/11/05 07:54:05;;;;;;;10.20;7.45;;;9.50;75.30;;;;;;5029909;28;20037;-53
2022/11/05 07:56:32;;;;;;;12.75;7.05;;;9.60;75.30;;;;;;5045297;28;20041;-52
2022/11/05 07:58:59;;;;;;;11.20;7.85;;;9.60;75.30;;;;;;5050266;28;20064;-51
2022/11/05 08:01:25;;;;;;;10.50;7.63;;;9.60;75.30;;;;;;5025653;28;20054;-53
2022/11/05 08:03:56;;;;;;;9.68;7.38;;;9.70;75.40;;;;;;5045069;28;20052;-53
2022/11/05 08:06:22;;;;;;;10.10;7.45;;;9.70;75.50;;;;;;5043927;28;20127;-53
2022/11/05 08:08:51;;;;;;;10.55;7.93;;;9.70;75.40;;;;;;5048648;28;20128;-53
2022/11/05 08:11:18;;;;;;;13.10;7.85;;;9.70;75.70;;;;;;5032989;28;20070;-53
2022/11/05 08:13:47;;;;;;;10.32;8.15;;;9.70;75.40;;;;;;5040802;28;20035;-53
2022/11/05 08:16:17;;;;;;;15.50;8.25;;;9.70;75.40;;;;;;5037802;28;20095;-51
2022/11/05 08:18:48;;;;;;;12.70;8.32;;;9.80;75.50;;;;;;5027935;28;20049;-52
2022/11/05 08:21:23;;;;;;;9.50;7.38;;;9.80;75.50;;;;;;5028216;28;20095;-53
2022/11/05 08:23:53;;;;;;;9.43;7.70;;;9.80;75.50;;;;;;5038661;28;20064;-52
2022/11/05 08:26:20;;;;;;;13.65;8.80;;;9.90;75.50;;;;;;5029851;28;20684;-53
2022/11/05 08:28:47;;;;;;;11.70;8.05;;;9.90;75.50;;;;;;5025741;28;20037;-53
2022/11/05 08:31:17;;;;;;;11.23;8.65;;;9.90;75.50;;;;;;5039752;28;20046;-53
2022/11/05 08:33:43;;;;;;;12.93;8.35;;;9.90;75.50;;;;;;5035726;28;20106;-52
2022/11/05 08:36:10;;;;;;;13.45;8.68;;;10.00;75.60;;;;;;5017682;28;20041;-55
2022/11/05 08:38:37;;;;;;;12.77;8.85;;;10.10;75.60;;;;;;5023683;28;20042;-52
2022/11/05 08:41:05;;;;;;;14.65;8.95;;;10.10;75.60;;;;;;5036215;28;20044;-53
2022/11/05 08:43:34;;;;;;;19.65;8.48;;;10.10;75.60;;;;;;5044390;28;20112;-53
2022/11/05 08:46:01;;;;;;;13.77;8.88;;;10.10;75.50;;;;;;5024974;28;20037;-52
2022/11/05 08:48:27;;;;;;;13.85;8.73;;;10.20;75.60;;;;;;5030968;28;20494;-53
2022/11/05 08:50:54;;;;;;;11.55;8.90;;;10.30;75.60;;;;;;5043797;28;20129;-53
2022/11/05 08:53:21;;;;;;;12.63;9.27;;;10.30;75.60;;;;;;5027781;28;20077;-53
2022/11/05 08:55:49;;;;;;;13.32;10.00;;;10.30;75.60;;;;;;5042535;28;20041;-53
2022/11/05 08:58:19;;;;;;;12.00;9.43;;;10.40;75.60;;;;;;5032163;28;20517;-52
2022/11/05 09:00:48;;;;;;;12.07;9.05;;;10.40;75.60;;;;;;5029672;28;20041;-53
2022/11/05 09:03:15;;;;;;;12.02;8.68;;;10.50;75.60;;;;;;5042041;28;20072;-53
2022/11/05 09:05:43;;;;;;;12.45;8.82;;;10.50;75.50;;;;;;5028052;28;20120;-53
2022/11/05 09:08:12;;;;;;;14.68;8.88;;;10.50;76.00;;;;;;5035971;28;20041;-53
2022/11/05 09:10:40;;;;;;;14.60;9.55;;;10.60;75.50;;;;;;5040414;28;20404;-52
2022/11/05 09:13:07;;;;;;;12.10;9.35;;;10.60;75.50;;;;;;5048320;28;20076;-53
2022/11/05 09:15:42;;;;;;;14.25;8.88;;;10.70;75.50;;;;;;5029961;28;20054;-52
2022/11/05 09:18:12;;;;;;;13.77;9.50;;;10.70;75.40;;;;;;5038226;28;20068;-53
2022/11/05 09:20:39;;;;;;;12.45;9.32;;;10.70;75.40;;;;;;5038144;28;20680;-52
2022/11/05 09:23:08;;;;;;;13.15;8.63;;;10.80;75.30;;;;;;5028445;28;20041;-54
2022/11/05 09:25:38;;;;;;;12.00;8.95;;;10.80;75.20;;;;;;5034601;28;20038;-53
2022/11/05 09:28:14;;;;;;;12.98;8.88;;;10.90;75.30;;;;;;5031376;28;20146;-53
2022/11/05 09:30:46;;;;;;;13.70;8.73;;;10.90;75.30;;;;;;5028696;28;20067;-53
2022/11/05 09:33:14;;;;;;;14.05;9.25;;;11.00;75.20;;;;;;5026577;28;20037;-52
2022/11/05 09:35:41;;;;;;;12.88;8.50;;;11.00;75.00;;;;;;5026364;28;20052;-52
2022/11/05 09:38:08;;;;;;;14.20;9.10;;;11.10;75.00;;;;;;5044639;28;20051;-53
2022/11/05 09:40:53;;;;;;;11.65;8.63;;;11.10;74.90;;;;;;5048656;28;20494;-52
2022/11/05 09:43:23;;;;;;;12.55;7.97;;;11.10;74.90;;;;;;5046751;28;20128;-53
2022/11/05 09:46:02;;;;;;;10.98;8.38;;;11.20;74.80;;;;;;5040492;28;20047;-53
2022/11/05 09:48:31;;;;;;;13.40;8.95;;;11.20;74.70;;;;;;5043112;28;20068;-53
2022/11/05 09:50:58;;;;;;;11.60;8.50;;;11.30;74.60;;;;;;5030940;28;20045;-53
2022/11/05 09:53:25;;;;;;;13.60;8.60;;;11.30;74.60;;;;;;5027805;28;20034;-53
2022/11/05 09:55:57;;;;;;;14.85;9.35;;;11.40;74.60;;;;;;5039074;28;20111;-53
2022/11/05 09:59:02;;;;;;;9.65;7.93;;;11.50;74.40;;;;;;5043896;28;20051;-53
2022/11/05 10:01:35;;;;;;;16.55;9.32;;;11.50;74.50;;;;;;5040198;28;20577;-53
2022/11/05 10:04:11;;;;;;;10.50;7.90;;;11.60;74.50;;;;;;5031214;28;20040;-52
2022/11/05 10:06:55;;;;;;;12.25;8.25;;;11.60;74.20;;;;;;5041904;28;20034;-52
2022/11/05 10:09:25;;;;;;;14.93;8.82;;;11.70;74.00;;;;;;5050955;28;20045;-53
2022/11/05 10:12:15;;;;;;;13.77;8.75;;;11.80;73.80;;;;;;5040326;28;20056;-48
2022/11/05 10:14:48;;;;;;;16.80;8.75;;;11.80;73.60;;;;;;5030223;28;20041;-52
2022/11/05 10:17:23;;;;;;;14.40;8.25;;;11.80;73.40;;;;;;5044359;28;20095;-52
2022/11/05 10:19:58;;;;;;;10.27;8.23;;;11.90;73.00;;;;;;5032784;28;20052;-52
2022/11/05 10:22:25;;;;;;;13.52;8.35;;;11.90;72.90;;;;;;5027881;28;20036;-53
2022/11/05 10:24:53;;;;;;;13.88;8.15;;;11.90;72.80;;;;;;5039019;28;20045;-53
2022/11/05 10:27:35;;;;;;;14.63;7.70;;;12.00;72.70;;;;;;5043188;28;20119;-52
2022/11/05 10:30:05;;;;;;;10.70;8.48;;;12.00;72.70;;;;;;5051520;28;20116;-52
2022/11/05 10:32:36;;;;;;;9.30;7.65;;;12.10;72.80;;;;;;5036704;28;20033;-51
2022/11/05 10:35:07;;;;;;;11.80;7.55;;;12.10;72.70;;;;;;5041512;28;20032;-52
2022/11/05 10:37:35;;;;;;;10.45;7.65;;;12.20;72.80;;;;;;5048810;28;20049;-53
2022/11/05 10:40:17;;;;;;;13.18;8.40;;;12.20;72.90;;;;;;5028926;28;20056;-53
2022/11/05 10:42:48;;;;;;;10.95;6.93;;;12.30;72.70;;;;;;5030180;28;20037;-53
2022/11/05 10:45:36;;;;;;;9.90;7.50;;;12.30;72.80;;;;;;5042808;28;20493;-53
2022/11/05 10:48:33;;;;;;;13.73;7.97;;;12.40;72.40;;;;;;5051132;28;20051;-52
2022/11/05 10:51:07;;;;;;;10.57;7.28;;;12.50;72.40;;;;;;5031435;28;20041;-51
2022/11/05 10:53:39;;;;;;;12.90;7.70;;;12.60;72.70;;;;;;5039382;28;20056;-53
2022/11/05 10:56:29;;;;;;;11.57;7.63;;;12.60;73.00;;;;;;5011846;28;20571;-52
2022/11/05 10:59:01;;;;;;;11.10;7.60;;;12.80;71.60;;;;;;5016369;28;20409;-53
2022/11/05 11:01:35;;;;;;;8.23;6.97;;;12.90;72.00;;;;;;5027138;28;20088;-61
2022/11/05 11:04:14;;;;;;;8.85;5.88;;;13.00;72.00;;;;;;5043169;28;20041;-52
2022/11/05 11:06:48;;;;;;;9.10;6.60;;;13.10;71.40;;;;;;5030471;28;20045;-52
2022/11/05 11:09:36;;;;;;;11.85;8.00;;;13.20;71.10;;;;;;5032276;28;20577;-52
2022/11/05 11:12:24;;;;;;;10.48;6.70;;;13.40;70.50;;;;;;5042562;28;20533;-52
2022/11/05 11:15:01;;;;;;;9.95;7.35;;;13.50;70.60;;;;;;5049748;28;20155;-51
2022/11/05 11:17:30;;;;;;;8.73;5.95;;;13.60;70.50;;;;;;5035935;28;20041;-52
2022/11/05 11:20:25;;;;;;;9.13;6.30;;;13.70;70.30;;;;;;5039409;28;20129;-53
2022/11/05 11:23:08;;;;;;;9.90;6.47;;;13.80;69.40;;;;;;5028093;28;20117;-53
2022/11/05 11:25:51;;;;;;;8.30;6.20;;;13.90;69.90;;;;;;5042419;28;20037;-52
2022/11/05 11:28:23;;;;;;;7.95;6.28;;;14.00;68.90;;;;;;5025732;28;20041;-52
2022/11/05 11:31:00;;;;;;;6.95;6.00;;;14.00;69.20;;;;;;5039792;28;20099;-51
2022/11/05 11:33:29;;;;;;;8.52;5.80;;;14.20;68.40;;;;;;5038458;28;20037;-52
2022/11/05 11:35:56;;;;;;;7.78;5.93;;;14.20;68.50;;;;;;5027884;28;20148;-53
2022/11/05 11:38:25;;;;;;;8.10;6.25;;;14.20;68.50;;;;;;5029869;28;20120;-52
2022/11/05 11:41:00;;;;;;;7.00;5.50;;;14.30;68.20;;;;;;5045016;28;20049;-52
2022/11/05 11:43:29;;;;;;;9.60;5.55;;;14.40;67.50;;;;;;5031898;28;20076;-52
2022/11/05 11:45:57;;;;;;;10.20;5.55;;;14.40;67.70;;;;;;5028940;28;20041;-53
2022/11/05 11:48:34;;;;;;;8.82;5.80;;;14.40;67.60;;;;;;5034981;28;20037;-53
2022/11/05 11:51:19;;;;;;;5.97;5.18;;;14.40;67.30;;;;;;5038141;28;20405;-52
2022/11/05 11:53:48;;;;;;;7.22;5.18;;;14.50;66.80;;;;;;5026501;28;20034;-52
2022/11/05 11:56:17;;;;;;;7.03;5.20;;;14.60;67.50;;;;;;5041294;28;20449;-52
2022/11/05 11:58:55;;;;;;;8.30;5.80;;;14.60;67.20;;;;;;5034712;28;20128;-52
2022/11/05 12:01:47;;;;;;;7.57;5.93;;;14.70;66.70;;;;;;5030066;28;20033;-50
2022/11/05 12:04:29;;;;;;;7.53;5.50;;;14.70;65.80;;;;;;5036646;28;20045;-52
2022/11/05 12:07:08;;;;;;;7.13;4.45;;;14.80;66.40;;;;;;5026626;28;20406;-53
2022/11/05 12:09:59;;;;;;;9.02;4.95;;;14.80;66.30;;;;;;5039288;28;20520;-50
2022/11/05 12:13:22;;;;;;;7.22;5.38;;;14.90;65.70;;;;;;5017366;28;20038;-51
2022/11/05 12:15:59;;;;;;;7.65;5.15;;;14.90;65.50;;;;;;5024318;28;20053;-52
2022/11/05 12:18:35;;;;;;;7.03;4.13;;;15.00;65.60;;;;;;5028918;28;20045;-52
2022/11/05 12:21:20;;;;;;;6.72;4.78;;;15.10;65.30;;;;;;5029295;28;20037;-48
2022/11/05 12:24:26;;;;;;;7.20;4.57;;;15.10;65.30;;;;;;5025391;28;20052;-52
2022/11/05 12:26:55;;;;;;;6.20;4.57;;;15.20;64.60;;;;;;5040849;28;20045;-53
2022/11/05 12:30:00;;;;;;;6.32;4.63;;;15.20;65.10;;;;;;5041494;28;20463;-51
2022/11/05 12:32:56;;;;;;;5.38;4.45;;;15.30;64.00;;;;;;5043852;28;20046;-52
2022/11/05 12:36:03;;;;;;;8.07;4.35;;;15.30;64.00;;;;;;5038387;28;20048;-52
2022/11/05 12:38:53;;;;;;;6.47;4.50;;;15.30;63.80;;;;;;5008362;28;20080;-53
2022/11/05 12:41:28;;;;;;;11.48;5.15;;;15.40;63.90;;;;;;5029659;28;20037;-48
2022/11/05 12:44:13;;;;;;;6.72;4.80;;;15.40;64.00;;;;;;5021860;28;20041;-52
2022/11/05 12:46:48;;;;;;;7.50;4.18;;;15.40;63.80;;;;;;5038599;28;20048;-49
2022/11/05 12:49:15;;;;;;;6.10;3.85;;;15.50;63.90;;;;;;5022837;28;20467;-52
2022/11/05 12:52:13;;;;;;;5.32;4.00;;;15.50;63.90;;;;;;5024744;28;20056;-53
2022/11/05 12:55:06;;;;;;;5.68;4.07;;;15.60;62.60;;;;;;5032968;28;20045;-52
2022/11/05 12:57:38;;;;;;;5.18;4.15;;;15.60;62.60;;;;;;5026601;28;20056;-52
2022/11/05 13:00:19;;;;;;;5.07;4.07;;;15.60;62.90;;;;;;5025741;28;20041;-53
2022/11/05 13:03:31;;;;;;;3.88;3.45;;;15.70;62.00;;;;;;5030340;28;20060;-52
2022/11/05 13:06:12;;;;;;;7.35;3.55;;;15.70;62.00;;;;;;5039203;28;20656;-52
2022/11/05 13:08:55;;;;;;;5.95;3.55;;;15.70;62.00;;;;;;5030090;28;20057;-49
2022/11/05 13:11:59;;;;;;;8.43;3.83;;;15.80;61.50;;;;;;5031574;28;20048;-52
2022/11/05 13:14:31;;;;;;;7.68;3.58;;;15.80;61.00;;;;;;5033844;28;20054;-49
2022/11/05 13:17:14;;;;;;;5.13;3.45;;;15.80;61.80;;;;;;5030077;28;20049;-52
2022/11/05 13:19:49;;;;;;;5.82;3.80;;;15.90;61.60;;;;;;5028807;28;20101;-52
2022/11/05 13:22:37;;;;;;;4.30;3.35;;;15.90;60.80;;;;;;5034609;28;20040;-52
2022/11/05 13:25:20;;;;;;;4.90;3.25;;;16.00;61.30;;;;;;5040426;28;20041;-50
2022/11/05 13:28:06;;;;;;;6.30;3.25;;;16.00;60.90;;;;;;5032134;28;20045;-49
2022/11/05 13:30:50;;;;;;;4.78;3.47;;;16.10;60.70;;;;;;5030473;28;20041;-53
2022/11/05 13:33:29;;;;;;;5.38;3.60;;;16.10;61.00;;;;;;5039985;28;20051;-52
2022/11/05 13:38:59;;;;;;;5.15;3.85;;;16.20;60.10;;;;;;5027768;28;20046;-51
2022/11/05 13:41:31;;;;;;;6.95;4.40;;;16.00;59.60;;;;;;5036341;28;20631;-50
2022/11/05 13:44:36;;;;;;;8.38;6.15;;;16.10;59.80;;;;;;5039803;28;20041;-52
2022/11/05 13:47:42;;;;;;;5.35;4.00;;;16.10;59.30;;;;;;5014836;28;20073;-52
2022/11/05 13:50:43;;;;;;;5.28;4.78;;;16.00;59.00;;;;;;5036451;28;20041;-52
2022/11/05 13:53:41;;;;;;;5.47;4.55;;;16.00;59.10;;;;;;5029489;28;20116;-53
2022/11/05 13:56:08;;;;;;;5.00;3.90;;;15.90;59.00;;;;;;5029831;28;20132;-52
2022/11/05 13:58:44;;;;;;;5.68;3.60;;;15.80;59.80;;;;;;5026711;28;20087;-52
2022/11/05 14:01:22;;;;;;;4.75;3.42;;;15.80;60.10;;;;;;5033348;28;20049;-53
2022/11/05 14:03:52;;;;;;;5.30;3.35;;;15.70;60.00;;;;;;5031268;28;20053;-52
2022/11/05 14:06:27;;;;;;;8.07;6.30;;;15.70;60.20;;;;;;5029108;28;20037;-49